Time;durP1;ratioP1;P1;durP2;ratioP2;P2;SDS_P1;SDS_P2;PMS_P1;PMS_P2;Temp;Humidity;BMP_temperature;BMP_pressure;BME280_temperature;BME280_humidity;BME280_pressure;Samples;Min_cycle;Max_cycle;Signal;HPM_P1;HPM_P2
2022/07/01 00:01:27;;;;;;;;;2.00;2.00;;;;;;;;4875921;29;45593;-71
2022/07/01 00:03:53;;;;;;;;;2.33;2.33;;;;;;;;4887669;28;45459;-71
2022/07/01 00:06:18;;;;;;;;;2.00;2.00;;;;;;;;4892009;29;45157;-71
2022/07/01 00:08:43;;;;;;;;;2.33;2.00;;;;;;;;4896040;29;45825;-71
2022/07/01 00:11:08;;;;;;;;;2.00;2.00;;;;;;;;4875763;29;45358;-71
2022/07/01 00:13:34;;;;;;;;;4.00;2.00;;;;;;;;4898741;29;45332;-71
2022/07/01 00:15:59;;;;;;;;;2.00;2.00;;;;;;;;4880028;29;45388;-71
2022/07/01 00:18:24;;;;;;;;;2.00;2.00;;;;;;;;4891519;28;45562;-71
2022/07/01 00:20:50;;;;;;;;;4.00;3.00;;;;;;;;4890840;29;45407;-71
2022/07/01 00:23:16;;;;;;;;;3.00;3.00;;;;;;;;4896048;28;45303;-71
2022/07/01 00:25:42;;;;;;;;;2.00;2.00;;;;;;;;4879656;29;45405;-71
2022/07/01 00:28:07;;;;;;;;;2.00;2.00;;;;;;;;4888021;29;45677;-71
2022/07/01 00:30:32;;;;;;;;;2.67;2.67;;;;;;;;4880097;28;46498;-71
2022/07/01 00:32:57;;;;;;;;;3.00;3.00;;;;;;;;4891177;28;45301;-71
2022/07/01 00:35:22;;;;;;;;;3.00;2.00;;;;;;;;4880195;29;45468;-72
2022/07/01 00:37:48;;;;;;;;;3.00;1.67;;;;;;;;4899507;28;45459;-71
2022/07/01 00:40:13;;;;;;;;;7.00;4.00;;;;;;;;4883953;28;46437;-71
2022/07/01 00:42:39;;;;;;;;;2.33;2.33;;;;;;;;4887428;28;45286;-71
2022/07/01 00:45:05;;;;;;;;;2.33;2.00;;;;;;;;4885051;29;45382;-71
2022/07/01 00:47:31;;;;;;;;;2.00;2.00;;;;;;;;4889597;29;45762;-71
2022/07/01 00:49:56;;;;;;;;;3.33;3.33;;;;;;;;4883880;28;45434;-71
2022/07/01 00:52:21;;;;;;;;;3.67;3.67;;;;;;;;4897876;29;45331;-71
2022/07/01 00:54:46;;;;;;;;;2.00;2.00;;;;;;;;4892395;28;45296;-71
2022/07/01 00:57:11;;;;;;;;;3.00;3.00;;;;;;;;4899282;29;45597;-71
2022/07/01 00:59:38;;;;;;;;;2.00;2.00;;;;;;;;4891496;28;46747;-71
2022/07/01 01:02:04;;;;;;;;;1.00;1.00;;;;;;;;4898682;28;45316;-71
2022/07/01 01:04:29;;;;;;;;;2.67;2.67;;;;;;;;4877655;29;45432;-71
2022/07/01 01:06:55;;;;;;;;;4.33;2.00;;;;;;;;4886355;29;45155;-71
2022/07/01 01:09:21;;;;;;;;;3.33;3.33;;;;;;;;4893876;29;45515;-71
2022/07/01 01:11:46;;;;;;;;;3.00;3.00;;;;;;;;4892383;28;45272;-71
2022/07/01 01:14:12;;;;;;;;;3.67;3.67;;;;;;;;4894538;28;45493;-71
2022/07/01 01:16:38;;;;;;;;;3.00;3.00;;;;;;;;4894167;29;45366;-71
2022/07/01 01:19:07;;;;;;;;;3.33;2.67;;;;;;;;4898348;28;46087;-71
2022/07/01 01:21:33;;;;;;;;;4.00;2.33;;;;;;;;4889667;29;45204;-71
2022/07/01 01:23:58;;;;;;;;;4.67;3.33;;;;;;;;4884990;29;45628;-71
2022/07/01 01:26:25;;;;;;;;;4.67;3.00;;;;;;;;4891222;29;45477;-71
2022/07/01 01:28:50;;;;;;;;;2.00;2.00;;;;;;;;4884583;29;45505;-71
2022/07/01 01:31:16;;;;;;;;;2.33;2.33;;;;;;;;4880107;29;45399;-71
2022/07/01 01:33:42;;;;;;;;;4.67;3.33;;;;;;;;4888385;29;45420;-71
2022/07/01 01:36:07;;;;;;;;;3.67;3.67;;;;;;;;4880248;29;45413;-71
2022/07/01 01:38:34;;;;;;;;;3.00;3.00;;;;;;;;4891993;29;46367;-71
2022/07/01 01:40:59;;;;;;;;;2.00;2.00;;;;;;;;4883746;29;45433;-71
2022/07/01 01:43:24;;;;;;;;;4.67;2.00;;;;;;;;4897453;29;45438;-71
2022/07/01 01:45:50;;;;;;;;;3.00;3.00;;;;;;;;4881941;29;45638;-71
2022/07/01 01:48:15;;;;;;;;;2.33;2.33;;;;;;;;4895622;29;45468;-71
2022/07/01 01:50:40;;;;;;;;;2.33;2.33;;;;;;;;4884782;29;45354;-71
2022/07/01 01:53:05;;;;;;;;;4.00;4.00;;;;;;;;4902302;29;45643;-71
2022/07/01 01:55:30;;;;;;;;;4.00;4.00;;;;;;;;4888109;28;45412;-71
2022/07/01 01:57:56;;;;;;;;;3.00;3.00;;;;;;;;4888818;28;45621;-71
2022/07/01 02:00:21;;;;;;;;;5.00;4.00;;;;;;;;4892722;29;45347;-71
2022/07/01 02:02:46;;;;;;;;;2.67;2.00;;;;;;;;4898337;28;45494;-71
2022/07/01 02:05:12;;;;;;;;;3.67;3.67;;;;;;;;4882726;29;45381;-71
2022/07/01 02:07:38;;;;;;;;;2.67;2.67;;;;;;;;4891712;29;46210;-71
2022/07/01 02:10:03;;;;;;;;;4.33;3.00;;;;;;;;4888317;29;45382;-71
2022/07/01 02:12:28;;;;;;;;;3.67;3.67;;;;;;;;4882402;29;45369;-71
2022/07/01 02:14:53;;;;;;;;;4.33;4.33;;;;;;;;4880238;29;45774;-71
2022/07/01 02:17:19;;;;;;;;;4.00;4.00;;;;;;;;4889663;28;47306;-71
2022/07/01 02:19:44;;;;;;;;;2.00;2.00;;;;;;;;4884829;29;45361;-71
2022/07/01 02:22:09;;;;;;;;;2.33;2.00;;;;;;;;4880565;29;45343;-71
2022/07/01 02:24:34;;;;;;;;;3.00;3.00;;;;;;;;4888063;29;45258;-71
2022/07/01 02:26:59;;;;;;;;;3.33;3.33;;;;;;;;4890894;29;47989;-71
2022/07/01 02:29:25;;;;;;;;;5.00;4.00;;;;;;;;4889992;29;45403;-71
2022/07/01 02:31:50;;;;;;;;;7.00;4.00;;;;;;;;4893864;29;45420;-71
2022/07/01 02:34:15;;;;;;;;;4.00;4.00;;;;;;;;4895192;28;45169;-71
2022/07/01 02:36:40;;;;;;;;;5.00;3.67;;;;;;;;4890854;28;45512;-71
2022/07/01 02:39:06;;;;;;;;;4.00;4.00;;;;;;;;4888235;29;45417;-71
2022/07/01 02:41:31;;;;;;;;;5.00;4.67;;;;;;;;4883897;29;45231;-71
2022/07/01 02:43:56;;;;;;;;;3.00;3.00;;;;;;;;4895772;29;45601;-71
2022/07/01 02:46:21;;;;;;;;;4.00;4.00;;;;;;;;4876222;29;46470;-71
2022/07/01 02:48:47;;;;;;;;;7.00;5.00;;;;;;;;4893690;29;45301;-71
2022/07/01 02:51:12;;;;;;;;;4.00;4.00;;;;;;;;4882061;29;45472;-71
2022/07/01 02:53:37;;;;;;;;;5.00;4.00;;;;;;;;4886179;29;46802;-71
2022/07/01 02:56:02;;;;;;;;;5.67;5.67;;;;;;;;4883606;28;45393;-71
2022/07/01 02:58:27;;;;;;;;;4.00;4.00;;;;;;;;4888340;29;45378;-71
2022/07/01 03:00:53;;;;;;;;;4.00;4.00;;;;;;;;4885112;28;45493;-71
2022/07/01 03:03:19;;;;;;;;;4.00;4.00;;;;;;;;4890092;29;45317;-71
2022/07/01 03:05:44;;;;;;;;;7.00;5.00;;;;;;;;4885764;28;45446;-71
2022/07/01 03:08:09;;;;;;;;;7.33;6.33;;;;;;;;4895833;29;45463;-71
2022/07/01 03:10:34;;;;;;;;;8.00;5.00;;;;;;;;4887898;28;45332;-71
2022/07/01 03:13:01;;;;;;;;;5.33;5.00;;;;;;;;4896658;29;45642;-71
2022/07/01 03:15:27;;;;;;;;;4.00;4.00;;;;;;;;4888636;28;45423;-71
2022/07/01 03:17:52;;;;;;;;;5.00;5.00;;;;;;;;4883108;29;45479;-71
2022/07/01 03:20:17;;;;;;;;;5.00;5.00;;;;;;;;4878818;29;45410;-71
2022/07/01 03:22:43;;;;;;;;;5.00;4.00;;;;;;;;4882704;29;45302;-71
2022/07/01 03:25:09;;;;;;;;;4.00;4.00;;;;;;;;4879870;29;46330;-71
2022/07/01 03:27:34;;;;;;;;;5.00;3.67;;;;;;;;4881140;29;45332;-71
2022/07/01 03:30:00;;;;;;;;;3.33;3.33;;;;;;;;4882676;28;45282;-71
2022/07/01 03:32:26;;;;;;;;;4.33;3.33;;;;;;;;4883241;29;45254;-71
2022/07/01 03:34:52;;;;;;;;;5.00;4.25;;;;;;;;4887228;29;45605;-71
2022/07/01 03:37:17;;;;;;;;;3.00;3.00;;;;;;;;4888897;29;45205;-71
2022/07/01 03:39:43;;;;;;;;;3.67;3.67;;;;;;;;4888773;28;45374;-70
2022/07/01 03:42:08;;;;;;;;;3.00;2.00;;;;;;;;4887712;29;45629;-70
2022/07/01 03:44:34;;;;;;;;;5.00;4.33;;;;;;;;4886531;28;46296;-71
2022/07/01 03:47:00;;;;;;;;;4.00;3.00;;;;;;;;4882640;29;45798;-71
2022/07/01 03:49:25;;;;;;;;;2.67;2.67;;;;;;;;4890949;28;45337;-71
2022/07/01 03:51:51;;;;;;;;;2.00;2.00;;;;;;;;4891305;29;45459;-71
2022/07/01 03:57:01;;;;;;;;;1.33;1.33;;;;;;;;4880221;29;45442;-71
2022/07/01 03:59:27;;;;;;;;;4.67;4.00;;;;;;;;4881871;29;45456;-71
2022/07/01 04:01:53;;;;;;;;;3.00;2.00;;;;;;;;4880929;29;45248;-71
2022/07/01 04:04:18;;;;;;;;;5.00;3.67;;;;;;;;4884151;29;47399;-71
2022/07/01 04:06:44;;;;;;;;;2.00;2.00;;;;;;;;4893674;29;45206;-71
2022/07/01 04:09:10;;;;;;;;;3.00;3.00;;;;;;;;4893021;29;45245;-71
2022/07/01 04:11:37;;;;;;;;;4.00;3.00;;;;;;;;4887222;29;45311;-70
2022/07/01 04:14:02;;;;;;;;;2.00;2.00;;;;;;;;4892183;28;45506;-71
2022/07/01 04:16:27;;;;;;;;;3.00;3.00;;;;;;;;4890707;29;45335;-71
2022/07/01 04:18:52;;;;;;;;;4.67;1.67;;;;;;;;4887337;29;45324;-71
2022/07/01 04:24:02;;;;;;;;;4.00;1.67;;;;;;;;4889780;29;45797;-71
2022/07/01 04:26:27;;;;;;;;;4.67;2.00;;;;;;;;4883856;28;45225;-71
2022/07/01 04:28:54;;;;;;;;;5.00;2.33;;;;;;;;4892275;29;45517;-71
2022/07/01 04:31:19;;;;;;;;;7.67;2.00;;;;;;;;4880727;28;45300;-71
2022/07/01 04:33:51;;;;;;;;;3.00;3.00;;;;;;;;4891913;29;45346;-71
2022/07/01 04:36:16;;;;;;;;;7.00;3.67;;;;;;;;4887938;29;45293;-71
2022/07/01 04:38:42;;;;;;;;;3.67;3.00;;;;;;;;4895612;29;45209;-71
2022/07/01 04:43:51;;;;;;;;;2.00;2.00;;;;;;;;4888120;29;45443;-71
2022/07/01 04:46:16;;;;;;;;;4.00;4.00;;;;;;;;4882814;29;45453;-71
2022/07/01 04:48:41;;;;;;;;;3.00;3.00;;;;;;;;4896112;29;45382;-71
2022/07/01 04:51:07;;;;;;;;;3.67;2.00;;;;;;;;4883951;29;45657;-70
2022/07/01 04:53:32;;;;;;;;;3.00;3.00;;;;;;;;4896440;29;45502;-71
2022/07/01 04:55:57;;;;;;;;;3.00;3.00;;;;;;;;4881946;29;45420;-70
2022/07/01 04:58:23;;;;;;;;;2.00;2.00;;;;;;;;4896252;28;45442;-71
2022/07/01 05:00:48;;;;;;;;;2.00;2.00;;;;;;;;4880608;28;45307;-70
2022/07/01 05:03:13;;;;;;;;;4.00;4.00;;;;;;;;4883833;29;46185;-71
2022/07/01 05:05:39;;;;;;;;;3.50;3.50;;;;;;;;4880001;28;45306;-71
2022/07/01 05:08:04;;;;;;;;;6.50;4.00;;;;;;;;4893457;29;45566;-71
2022/07/01 05:10:29;;;;;;;;;3.50;3.50;;;;;;;;4885269;29;45382;-71
2022/07/01 05:12:55;;;;;;;;;6.50;4.00;;;;;;;;4890411;29;45544;-71
2022/07/01 05:15:20;;;;;;;;;6.00;4.00;;;;;;;;4887618;28;45285;-71
2022/07/01 05:23:13;;;;;;;;;4.00;4.00;;;;;;;;4900639;29;45793;-70
2022/07/01 05:25:38;;;;;;;;;3.75;3.75;;;;;;;;4882966;29;45456;-71
2022/07/01 05:28:04;;;;;;;;;5.00;3.50;;;;;;;;4884749;29;45611;-71
2022/07/01 05:30:29;;;;;;;;;5.75;5.25;;;;;;;;4886217;28;45507;-71
2022/07/01 05:32:54;;;;;;;;;5.25;4.50;;;;;;;;4893667;29;45472;-70
2022/07/01 05:35:19;;;;;;;;;4.33;4.00;;;;;;;;4885179;29;45470;-70
2022/07/01 05:37:44;;;;;;;;;3.75;3.75;;;;;;;;4879081;29;45420;-71
2022/07/01 05:40:10;;;;;;;;;3.50;2.50;;;;;;;;4876835;29;45476;-71
2022/07/01 05:42:35;;;;;;;;;3.50;3.50;;;;;;;;4892382;29;45325;-71
2022/07/01 05:45:00;;;;;;;;;5.25;5.25;;;;;;;;4882564;29;45502;-71
2022/07/01 05:47:25;;;;;;;;;5.00;4.00;;;;;;;;4888735;29;45463;-71
2022/07/01 05:49:51;;;;;;;;;3.00;3.00;;;;;;;;4881740;28;45709;-71
2022/07/01 05:52:16;;;;;;;;;4.00;3.00;;;;;;;;4896409;29;46563;-71
2022/07/01 05:54:41;;;;;;;;;2.67;2.00;;;;;;;;4891093;29;45277;-70
2022/07/01 05:57:06;;;;;;;;;3.00;3.00;;;;;;;;4898568;28;45362;-71
2022/07/01 05:59:32;;;;;;;;;4.00;2.00;;;;;;;;4893483;28;45353;-71
2022/07/01 06:01:57;;;;;;;;;3.33;3.00;;;;;;;;4886902;29;46339;-71
2022/07/01 06:04:22;;;;;;;;;6.00;3.00;;;;;;;;4895971;28;45291;-71
2022/07/01 06:06:47;;;;;;;;;2.00;2.00;;;;;;;;4880446;29;45520;-69
2022/07/01 06:09:13;;;;;;;;;5.00;3.33;;;;;;;;4891760;29;45375;-70
2022/07/01 06:11:38;;;;;;;;;4.00;3.00;;;;;;;;4910508;28;47436;-70
2022/07/01 06:14:03;;;;;;;;;2.33;2.00;;;;;;;;4887399;29;45424;-70
2022/07/01 06:16:28;;;;;;;;;3.67;2.67;;;;;;;;4888812;29;45193;-70
2022/07/01 06:18:53;;;;;;;;;3.00;3.00;;;;;;;;4891479;29;46683;-70
2022/07/01 06:21:19;;;;;;;;;5.00;4.00;;;;;;;;4906092;28;46255;-71
2022/07/01 06:23:45;;;;;;;;;1.67;1.67;;;;;;;;4895307;28;45379;-70
2022/07/01 06:26:10;;;;;;;;;3.33;3.00;;;;;;;;4882453;29;45514;-71
2022/07/01 06:28:35;;;;;;;;;4.00;3.00;;;;;;;;4894395;29;45154;-70
2022/07/01 06:31:01;;;;;;;;;4.00;2.00;;;;;;;;4879929;29;47101;-72
2022/07/01 06:33:29;;;;;;;;;2.00;2.00;;;;;;;;4895362;29;45342;-70
2022/07/01 06:35:54;;;;;;;;;3.00;3.00;;;;;;;;4882679;28;45349;-70
2022/07/01 06:38:20;;;;;;;;;2.00;1.00;;;;;;;;4886106;29;45490;-70
2022/07/01 06:41:26;;;;;;;;;3.00;2.00;;;;;;;;4879591;29;46416;-70
2022/07/01 06:43:30;;;;;;;;;2.00;2.00;;;;;;;;4883799;29;45468;-69
2022/07/01 06:45:55;;;;;;;;;4.00;3.00;;;;;;;;4887324;28;45386;-70
2022/07/01 06:48:20;;;;;;;;;2.33;1.00;;;;;;;;4892849;29;46843;-68
2022/07/01 06:50:46;;;;;;;;;3.33;2.00;;;;;;;;4886260;28;45454;-69
2022/07/01 06:53:11;;;;;;;;;2.00;2.00;;;;;;;;4891813;29;45345;-70
2022/07/01 06:55:36;;;;;;;;;4.33;2.00;;;;;;;;4884492;29;45541;-70
2022/07/01 06:58:01;;;;;;;;;3.00;2.00;;;;;;;;4881554;29;45926;-70
2022/07/01 07:00:26;;;;;;;;;4.00;2.00;;;;;;;;4883801;28;46415;-71
2022/07/01 07:02:52;;;;;;;;;4.00;2.00;;;;;;;;4891146;28;45221;-70
2022/07/01 07:05:17;;;;;;;;;2.33;1.00;;;;;;;;4887025;29;45462;-70
2022/07/01 07:07:42;;;;;;;;;1.67;1.67;;;;;;;;4889128;29;45897;-70
2022/07/01 07:10:07;;;;;;;;;3.00;1.00;;;;;;;;4891611;29;46489;-70
2022/07/01 07:12:33;;;;;;;;;0.00;0.00;;;;;;;;4891547;29;45421;-70
2022/07/01 07:14:58;;;;;;;;;2.00;2.00;;;;;;;;4889915;29;45276;-70
2022/07/01 07:17:23;;;;;;;;;2.00;0.67;;;;;;;;4894379;28;46204;-70
2022/07/01 07:19:48;;;;;;;;;0.67;0.67;;;;;;;;4896576;29;45276;-70
2022/07/01 07:22:13;;;;;;;;;1.00;1.00;;;;;;;;4900131;29;45415;-70
2022/07/01 07:24:39;;;;;;;;;2.67;1.00;;;;;;;;4896943;28;45402;-70
2022/07/01 07:27:04;;;;;;;;;1.00;1.00;;;;;;;;4898387;28;45467;-71
2022/07/01 07:29:29;;;;;;;;;3.00;0.33;;;;;;;;4896198;28;46605;-70
2022/07/01 07:31:54;;;;;;;;;0.00;0.00;;;;;;;;4899641;28;45165;-71
2022/07/01 07:34:20;;;;;;;;;2.67;1.00;;;;;;;;4896334;29;45273;-71
2022/07/01 07:36:45;;;;;;;;;1.00;1.00;;;;;;;;4898711;29;45576;-71
2022/07/01 07:39:11;;;;;;;;;3.33;0.33;;;;;;;;4896906;28;45378;-71
2022/07/01 07:41:36;;;;;;;;;0.00;0.00;;;;;;;;4897803;29;45170;-71
2022/07/01 07:44:01;;;;;;;;;0.00;0.00;;;;;;;;4898069;28;45156;-71
2022/07/01 07:46:26;;;;;;;;;2.00;1.00;;;;;;;;4873472;29;45206;-70
2022/07/01 07:48:52;;;;;;;;;0.33;0.33;;;;;;;;4885150;29;45235;-71
2022/07/01 07:51:18;;;;;;;;;0.33;0.33;;;;;;;;4878910;29;44664;-72
2022/07/01 07:53:43;;;;;;;;;1.67;0.00;;;;;;;;4903413;28;45364;-70
2022/07/01 07:56:08;;;;;;;;;1.00;0.00;;;;;;;;4885562;29;46935;-71
2022/07/01 07:58:33;;;;;;;;;1.67;0.00;;;;;;;;4891680;29;45328;-71
2022/07/01 08:00:58;;;;;;;;;1.33;0.67;;;;;;;;4894958;29;45312;-71
2022/07/01 08:03:24;;;;;;;;;1.33;0.00;;;;;;;;4896371;29;45387;-71
2022/07/01 08:05:49;;;;;;;;;0.00;0.00;;;;;;;;4884826;29;45439;-71
2022/07/01 08:08:14;;;;;;;;;1.25;0.00;;;;;;;;4896792;29;45411;-71
2022/07/01 08:10:39;;;;;;;;;0.75;0.00;;;;;;;;4884696;28;45379;-71
2022/07/01 08:13:05;;;;;;;;;0.75;0.00;;;;;;;;4898349;29;45390;-71
2022/07/01 08:15:31;;;;;;;;;0.75;0.00;;;;;;;;4881969;29;45970;-73
2022/07/01 08:17:56;;;;;;;;;1.00;0.75;;;;;;;;4882047;29;45698;-71
2022/07/01 08:20:21;;;;;;;;;0.00;0.00;;;;;;;;4881601;29;45765;-72
2022/07/01 08:22:47;;;;;;;;;0.00;0.00;;;;;;;;4899784;28;45426;-71
2022/07/01 08:25:12;;;;;;;;;0.00;0.00;;;;;;;;4886876;28;45488;-71
2022/07/01 08:27:39;;;;;;;;;0.00;0.00;;;;;;;;4885997;29;45435;-71
2022/07/01 08:30:05;;;;;;;;;1.25;0.00;;;;;;;;4880507;29;45227;-71
2022/07/01 08:32:30;;;;;;;;;0.00;0.00;;;;;;;;4888363;29;45293;-71
2022/07/01 08:34:56;;;;;;;;;0.00;0.00;;;;;;;;4886204;28;45567;-72
2022/07/01 08:37:21;;;;;;;;;1.00;0.00;;;;;;;;4889037;29;46154;-72
2022/07/01 08:39:46;;;;;;;;;1.75;0.25;;;;;;;;4888170;28;45245;-72
2022/07/01 08:42:11;;;;;;;;;0.00;0.00;;;;;;;;4887334;29;45470;-72
2022/07/01 08:44:37;;;;;;;;;0.00;0.00;;;;;;;;4883603;28;45508;-72
2022/07/01 08:47:02;;;;;;;;;0.00;0.00;;;;;;;;4896323;29;45500;-72
2022/07/01 08:49:28;;;;;;;;;0.00;0.00;;;;;;;;4892207;28;45429;-71
2022/07/01 08:51:53;;;;;;;;;0.00;0.00;;;;;;;;4872937;29;45288;-71
2022/07/01 08:54:18;;;;;;;;;0.00;0.00;;;;;;;;4887428;28;45484;-72
2022/07/01 08:56:45;;;;;;;;;0.00;0.00;;;;;;;;4894705;29;45498;-72
2022/07/01 08:59:22;;;;;;;;;0.00;0.00;;;;;;;;4892717;28;45368;-72
2022/07/01 09:01:53;;;;;;;;;0.75;0.00;;;;;;;;4895234;29;45453;-71
2022/07/01 09:04:19;;;;;;;;;0.00;0.00;;;;;;;;4894420;28;45578;-70
2022/07/01 09:06:45;;;;;;;;;1.50;0.00;;;;;;;;4885817;29;46026;-70
2022/07/01 09:09:15;;;;;;;;;0.00;0.00;;;;;;;;4897815;29;45588;-71
2022/07/01 09:11:44;;;;;;;;;0.00;0.00;;;;;;;;4899907;28;45433;-71
2022/07/01 09:14:11;;;;;;;;;0.00;0.00;;;;;;;;4899653;28;45574;-71
2022/07/01 09:16:44;;;;;;;;;1.00;0.00;;;;;;;;4892750;29;46575;-71
2022/07/01 09:19:10;;;;;;;;;0.40;0.00;;;;;;;;4888967;29;45463;-73
2022/07/01 09:21:35;;;;;;;;;1.00;0.00;;;;;;;;4891368;29;45360;-71
2022/07/01 09:24:19;;;;;;;;;0.00;0.00;;;;;;;;4901046;28;45669;-71
2022/07/01 09:26:51;;;;;;;;;0.00;0.00;;;;;;;;4883861;29;46435;-71
2022/07/01 09:29:16;;;;;;;;;0.00;0.00;;;;;;;;4897671;29;45753;-72
2022/07/01 09:31:47;;;;;;;;;1.25;0.00;;;;;;;;4896137;29;45392;-71
2022/07/01 09:34:12;;;;;;;;;0.00;0.00;;;;;;;;4883694;29;45488;-71
2022/07/01 09:36:39;;;;;;;;;1.00;0.00;;;;;;;;4876546;29;45428;-71
2022/07/01 09:39:04;;;;;;;;;0.60;0.00;;;;;;;;4911811;28;45521;-71
2022/07/01 09:41:35;;;;;;;;;0.00;0.00;;;;;;;;4886490;29;45348;-71
2022/07/01 09:44:04;;;;;;;;;0.00;0.00;;;;;;;;4900348;28;45444;-71
2022/07/01 09:46:29;;;;;;;;;0.00;0.00;;;;;;;;4886596;29;45574;-72
2022/07/01 09:48:54;;;;;;;;;2.50;0.50;;;;;;;;4895935;29;45742;-77
2022/07/01 09:51:20;;;;;;;;;0.00;0.00;;;;;;;;4898241;29;45697;-75
2022/07/01 09:53:45;;;;;;;;;0.00;0.00;;;;;;;;4902423;29;46932;-76
2022/07/01 09:56:10;;;;;;;;;0.00;0.00;;;;;;;;4892098;28;50295;-72
2022/07/01 09:58:38;;;;;;;;;0.00;0.00;;;;;;;;4900012;29;45214;-72
2022/07/01 10:01:04;;;;;;;;;0.80;0.00;;;;;;;;4879161;28;45522;-71
2022/07/01 10:03:30;;;;;;;;;0.00;0.00;;;;;;;;4890778;29;45353;-71
2022/07/01 10:06:22;;;;;;;;;0.00;0.00;;;;;;;;4883078;28;45502;-71
2022/07/01 10:08:56;;;;;;;;;0.00;0.00;;;;;;;;4888986;28;45469;-71
2022/07/01 10:11:24;;;;;;;;;0.00;0.00;;;;;;;;4888932;29;45258;-71
2022/07/01 10:13:49;;;;;;;;;0.00;0.00;;;;;;;;4902017;28;45324;-71
2022/07/01 10:16:16;;;;;;;;;0.00;0.00;;;;;;;;4887395;29;45381;-71
2022/07/01 10:18:41;;;;;;;;;0.00;0.00;;;;;;;;4895844;28;45353;-71
2022/07/01 10:21:06;;;;;;;;;0.00;0.00;;;;;;;;4886310;29;45347;-71
2022/07/01 10:23:38;;;;;;;;;0.00;0.00;;;;;;;;4886278;29;45337;-71
2022/07/01 10:26:04;;;;;;;;;1.40;0.00;;;;;;;;4876505;29;46521;-71
2022/07/01 10:28:43;;;;;;;;;0.00;0.00;;;;;;;;4895327;29;45380;-71
2022/07/01 10:31:15;;;;;;;;;2.00;0.00;;;;;;;;4879089;28;45282;-71
2022/07/01 10:33:46;;;;;;;;;0.00;0.00;;;;;;;;4879030;29;45344;-71
2022/07/01 10:36:31;;;;;;;;;0.00;0.00;;;;;;;;4880499;29;45344;-71
2022/07/01 10:39:16;;;;;;;;;0.00;0.00;;;;;;;;4887356;29;45577;-71
2022/07/01 10:41:58;;;;;;;;;0.00;0.00;;;;;;;;4900283;28;45301;-71
2022/07/01 10:44:24;;;;;;;;;0.00;0.00;;;;;;;;4883677;29;45481;-71
2022/07/01 10:46:56;;;;;;;;;0.00;0.00;;;;;;;;4884750;29;45341;-70
2022/07/01 10:49:42;;;;;;;;;0.60;0.00;;;;;;;;4889614;28;45880;-71
2022/07/01 10:52:15;;;;;;;;;0.40;0.00;;;;;;;;4895334;29;45444;-71
2022/07/01 10:54:40;;;;;;;;;0.00;0.00;;;;;;;;4895253;28;45465;-71
2022/07/01 10:57:22;;;;;;;;;0.00;0.00;;;;;;;;4898877;28;45609;-71
2022/07/01 11:00:10;;;;;;;;;0.40;0.00;;;;;;;;4889822;28;45150;-71
2022/07/01 11:02:36;;;;;;;;;0.00;0.00;;;;;;;;4898747;29;45388;-72
2022/07/01 11:05:03;;;;;;;;;0.00;0.00;;;;;;;;4892394;28;45799;-71
2022/07/01 11:07:30;;;;;;;;;0.00;0.00;;;;;;;;4889896;28;46653;-71
2022/07/01 11:09:56;;;;;;;;;0.00;0.00;;;;;;;;4895302;29;45297;-72
2022/07/01 11:12:23;;;;;;;;;0.00;0.00;;;;;;;;4899806;29;45292;-72
2022/07/01 11:14:49;;;;;;;;;0.00;0.00;;;;;;;;4894888;28;46061;-72
2022/07/01 11:17:14;;;;;;;;;0.00;0.00;;;;;;;;4894225;28;46508;-70
2022/07/01 11:19:39;;;;;;;;;0.00;0.00;;;;;;;;4894725;29;45378;-71
2022/07/01 11:22:05;;;;;;;;;0.00;0.00;;;;;;;;4877772;29;45403;-71
2022/07/01 11:24:31;;;;;;;;;0.00;0.00;;;;;;;;4884558;29;45526;-72
2022/07/01 11:27:08;;;;;;;;;1.00;0.00;;;;;;;;4888364;28;46425;-72
2022/07/01 11:29:34;;;;;;;;;0.20;0.00;;;;;;;;4885573;29;45388;-71
2022/07/01 11:31:59;;;;;;;;;0.00;0.00;;;;;;;;4895958;29;45601;-70
2022/07/01 11:34:27;;;;;;;;;0.00;0.00;;;;;;;;4895514;28;45173;-71
2022/07/01 11:39:36;;;;;;;;;0.00;0.00;;;;;;;;4882286;29;45286;-72
2022/07/01 11:42:06;;;;;;;;;1.00;0.00;;;;;;;;4887478;29;45313;-71
2022/07/01 11:44:33;;;;;;;;;0.40;0.40;;;;;;;;4880603;29;47120;-71
2022/07/01 11:46:58;;;;;;;;;0.00;0.00;;;;;;;;4889181;29;46415;-72
2022/07/01 11:49:24;;;;;;;;;0.00;0.00;;;;;;;;4896532;28;45368;-72
2022/07/01 11:51:58;;;;;;;;;0.00;0.00;;;;;;;;4899356;28;45280;-73
2022/07/01 11:54:24;;;;;;;;;0.00;0.00;;;;;;;;4896388;28;45539;-76
2022/07/01 11:56:49;;;;;;;;;0.00;0.00;;;;;;;;4892829;29;45641;-75
2022/07/01 11:59:14;;;;;;;;;0.00;0.00;;;;;;;;4893604;28;45225;-73
2022/07/01 12:01:39;;;;;;;;;0.00;0.00;;;;;;;;4884738;29;45663;-71
2022/07/01 12:04:06;;;;;;;;;0.00;0.00;;;;;;;;4893091;29;45479;-71
2022/07/01 12:06:32;;;;;;;;;0.00;0.00;;;;;;;;4894547;29;46390;-72
2022/07/01 12:08:57;;;;;;;;;1.00;0.00;;;;;;;;4887875;28;45304;-71
2022/07/01 12:11:24;;;;;;;;;0.00;0.00;;;;;;;;4884039;29;45396;-71
2022/07/01 12:13:50;;;;;;;;;0.20;0.20;;;;;;;;4890628;29;47104;-72
2022/07/01 12:16:15;;;;;;;;;0.00;0.00;;;;;;;;4886743;29;45406;-72
2022/07/01 12:18:55;;;;;;;;;0.00;0.00;;;;;;;;4897208;28;45354;-71
2022/07/01 12:21:22;;;;;;;;;0.00;0.00;;;;;;;;4872324;29;45320;-72
2022/07/01 12:24:06;;;;;;;;;0.20;0.00;;;;;;;;4890323;29;45366;-71
2022/07/01 12:26:32;;;;;;;;;0.00;0.00;;;;;;;;4883501;29;47291;-71
2022/07/01 12:28:57;;;;;;;;;0.00;0.00;;;;;;;;4893481;29;45253;-71
2022/07/01 12:31:22;;;;;;;;;0.00;0.00;;;;;;;;4872596;29;45367;-72
2022/07/01 12:33:48;;;;;;;;;0.00;0.00;;;;;;;;4896608;29;45642;-72
2022/07/01 12:36:15;;;;;;;;;0.00;0.00;;;;;;;;4878652;29;45663;-72
2022/07/01 12:38:41;;;;;;;;;0.00;0.00;;;;;;;;4893592;29;45355;-72
2022/07/01 12:41:25;;;;;;;;;0.00;0.00;;;;;;;;4889434;28;45325;-72
2022/07/01 12:43:50;;;;;;;;;0.00;0.00;;;;;;;;4900500;29;45327;-72
2022/07/01 12:46:27;;;;;;;;;0.00;0.00;;;;;;;;4902085;28;47527;-72
2022/07/01 12:48:52;;;;;;;;;0.20;0.00;;;;;;;;4887225;29;45474;-72
2022/07/01 12:51:17;;;;;;;;;0.00;0.00;;;;;;;;4880463;29;45423;-72
2022/07/01 12:53:42;;;;;;;;;0.00;0.00;;;;;;;;4890247;29;45303;-72
2022/07/01 12:56:08;;;;;;;;;0.00;0.00;;;;;;;;4885639;29;46193;-72
2022/07/01 12:58:33;;;;;;;;;0.00;0.00;;;;;;;;4900738;29;45330;-72
2022/07/01 13:00:58;;;;;;;;;0.25;0.00;;;;;;;;4888578;28;45370;-72
2022/07/01 13:03:25;;;;;;;;;0.00;0.00;;;;;;;;4898182;29;45337;-72
2022/07/01 13:05:51;;;;;;;;;0.00;0.00;;;;;;;;4895250;29;46832;-72
2022/07/01 13:08:16;;;;;;;;;0.25;0.00;;;;;;;;4894789;29;45423;-72
2022/07/01 13:10:42;;;;;;;;;0.00;0.00;;;;;;;;4884732;29;45305;-72
2022/07/01 13:13:08;;;;;;;;;0.00;0.00;;;;;;;;4896189;29;45508;-72
2022/07/01 13:15:34;;;;;;;;;0.00;0.00;;;;;;;;4888475;29;47466;-72
2022/07/01 13:18:00;;;;;;;;;0.00;0.00;;;;;;;;4891677;29;45540;-72
2022/07/01 13:20:25;;;;;;;;;0.00;0.00;;;;;;;;4884690;28;45502;-72
2022/07/01 13:22:50;;;;;;;;;0.00;0.00;;;;;;;;4892645;29;45397;-72
2022/07/01 13:25:15;;;;;;;;;0.00;0.00;;;;;;;;4885075;28;47142;-72
2022/07/01 13:27:43;;;;;;;;;0.00;0.00;;;;;;;;4892287;29;45455;-72
2022/07/01 13:30:09;;;;;;;;;0.00;0.00;;;;;;;;4889376;28;45595;-72
2022/07/01 13:32:34;;;;;;;;;0.25;0.00;;;;;;;;4888078;29;45436;-72
2022/07/01 13:35:00;;;;;;;;;0.00;0.00;;;;;;;;4882887;29;45475;-72
2022/07/01 13:37:26;;;;;;;;;1.00;0.00;;;;;;;;4897857;29;45307;-72
2022/07/01 13:39:52;;;;;;;;;0.00;0.00;;;;;;;;4890433;28;45395;-72
2022/07/01 13:42:17;;;;;;;;;0.50;0.00;;;;;;;;4884896;29;45392;-72
2022/07/01 13:44:42;;;;;;;;;0.00;0.00;;;;;;;;4886516;29;45262;-73
2022/07/01 13:47:09;;;;;;;;;0.50;0.00;;;;;;;;4893467;29;45292;-72
2022/07/01 13:49:38;;;;;;;;;0.00;0.00;;;;;;;;4894498;28;45371;-72
2022/07/01 13:52:04;;;;;;;;;0.20;0.00;;;;;;;;4895402;29;45420;-73
2022/07/01 13:54:30;;;;;;;;;0.00;0.00;;;;;;;;4893550;28;46840;-72
2022/07/01 13:56:55;;;;;;;;;0.50;0.00;;;;;;;;4887724;28;45474;-72
2022/07/01 13:59:21;;;;;;;;;0.00;0.00;;;;;;;;4887276;29;45573;-72
2022/07/01 14:01:46;;;;;;;;;0.00;0.00;;;;;;;;4886283;29;45256;-72
2022/07/01 14:04:11;;;;;;;;;0.00;0.00;;;;;;;;4888175;29;48443;-72
2022/07/01 14:06:36;;;;;;;;;0.00;0.00;;;;;;;;4890264;29;45348;-72
2022/07/01 14:09:02;;;;;;;;;0.00;0.00;;;;;;;;4893814;28;45411;-72
2022/07/01 14:11:27;;;;;;;;;0.00;0.00;;;;;;;;4884311;29;45521;-73
2022/07/01 14:13:52;;;;;;;;;0.00;0.00;;;;;;;;4896875;28;45395;-71
2022/07/01 14:16:18;;;;;;;;;0.00;0.00;;;;;;;;4888918;29;45506;-73
2022/07/01 14:18:44;;;;;;;;;0.00;0.00;;;;;;;;4897037;29;45383;-72
2022/07/01 14:21:10;;;;;;;;;0.00;0.00;;;;;;;;4882447;29;45325;-71
2022/07/01 14:23:35;;;;;;;;;0.00;0.00;;;;;;;;4897628;29;45637;-72
2022/07/01 14:26:00;;;;;;;;;0.00;0.00;;;;;;;;4890239;28;45546;-71
2022/07/01 14:28:26;;;;;;;;;0.00;0.00;;;;;;;;4888411;29;45445;-71
2022/07/01 14:30:51;;;;;;;;;0.00;0.00;;;;;;;;4886808;29;45492;-71
2022/07/01 14:33:16;;;;;;;;;0.00;0.00;;;;;;;;4891632;28;45468;-70
2022/07/01 14:35:42;;;;;;;;;1.00;0.00;;;;;;;;4888394;28;46024;-71
2022/07/01 14:38:07;;;;;;;;;0.00;0.00;;;;;;;;4880176;28;45432;-71
2022/07/01 14:40:33;;;;;;;;;0.00;0.00;;;;;;;;4883516;29;45300;-71
2022/07/01 14:42:58;;;;;;;;;1.00;0.00;;;;;;;;4890946;29;48152;-71
2022/07/01 14:45:23;;;;;;;;;0.25;0.00;;;;;;;;4887454;29;45373;-71
2022/07/01 14:47:49;;;;;;;;;0.00;0.00;;;;;;;;4893800;29;45424;-70
2022/07/01 14:50:14;;;;;;;;;0.00;0.00;;;;;;;;4886944;29;45998;-72
2022/07/01 14:52:39;;;;;;;;;0.00;0.00;;;;;;;;4894244;28;46527;-72
2022/07/01 14:55:05;;;;;;;;;0.75;0.00;;;;;;;;4887201;29;45405;-70